Doucette, Texas
Current Conditions -  °F | °C
As of 3:35 AM on Saturday 20 Dec 2014 (Local Time) from KJAS Reporting Station
Overcast Overcast  
Wind Chill:   Ceiling: 600
Heat Index:   Visibility: 10mi
Dew Point:   Wind: 5mph
Humidity: 96%   Direction: 30°NNE
Pressure: 30.17"   Gusts: NA
Location:  30.82°N, 94.43°W
Report Text: KJAS 200935Z AUTO 03004KT 10SM OVC006 09/08 A3017 RMK AO2 T00860080
Loading
Personal Weather Stations






























Interactive Weather Map New forecast layout! Learn more

10-Day Weather Forecast

Advertisements
Track Severe Weather on mobile